createdAt,value
2023-01-13T00:01:30.290Z,98987.00
2023-01-13T00:03:58.305Z,98982.00
2023-01-13T00:06:26.464Z,98979.00
2023-01-13T00:08:54.933Z,98984.00
2023-01-13T00:11:26.350Z,98978.00
2023-01-13T00:13:54.555Z,98973.00
2023-01-13T00:16:24.954Z,98965.00
2023-01-13T00:18:52.727Z,98962.00
2023-01-13T00:21:24.037Z,98968.00
2023-01-13T00:23:54.533Z,98964.00
2023-01-13T00:26:30.629Z,98971.00
2023-01-13T00:29:00.421Z,98965.00
2023-01-13T00:31:30.350Z,98968.00
2023-01-13T00:34:00.526Z,98956.00
2023-01-13T00:36:29.335Z,98961.00
2023-01-13T00:38:57.483Z,98964.00
2023-01-13T00:41:26.772Z,98962.00
2023-01-13T00:43:54.642Z,98957.00
2023-01-13T00:46:23.239Z,98959.00
2023-01-13T00:48:51.939Z,98948.00
2023-01-13T00:51:21.754Z,98954.00
2023-01-13T00:53:51.779Z,98938.00
2023-01-13T00:56:39.682Z,98938.00
2023-01-13T00:59:12.117Z,98939.00
2023-01-13T01:01:41.318Z,98937.00
2023-01-13T01:04:09.264Z,98931.00
2023-01-13T01:06:37.260Z,98932.00
2023-01-13T01:09:06.322Z,98928.00
2023-01-13T01:11:34.926Z,98923.00
2023-01-13T01:14:04.408Z,98932.00
2023-01-13T01:16:33.984Z,98930.00
2023-01-13T01:19:04.259Z,98927.00
2023-01-13T01:21:32.617Z,98939.00
2023-01-13T01:24:05.090Z,98941.00
2023-01-13T01:26:33.254Z,98938.00
2023-01-13T01:29:02.513Z,98942.00
2023-01-13T01:31:33.065Z,98932.00
2023-01-13T01:34:02.076Z,98925.00
2023-01-13T01:36:30.631Z,98929.00
2023-01-13T01:38:59.722Z,98931.00
2023-01-13T01:41:32.841Z,98926.00
2023-01-13T01:44:50.667Z,98925.00
2023-01-13T01:47:19.855Z,98925.00
2023-01-13T01:49:48.651Z,98927.00
2023-01-13T01:52:27.030Z,98924.00
2023-01-13T01:55:08.649Z,98930.00
2023-01-13T01:57:37.964Z,98926.00
2023-01-13T02:00:06.776Z,98934.00
2023-01-13T02:02:41.375Z,98918.00
2023-01-13T02:05:09.822Z,98922.00
2023-01-13T02:07:39.586Z,98919.00
2023-01-13T02:10:11.447Z,98926.00
2023-01-13T02:12:42.988Z,98917.00
2023-01-13T02:15:48.914Z,98931.00
2023-01-13T02:18:34.460Z,98929.00
2023-01-13T02:21:28.869Z,98916.00
2023-01-13T02:24:55.108Z,98913.00
2023-01-13T02:27:54.251Z,98913.00
2023-01-13T02:31:26.156Z,98918.00
2023-01-13T02:34:12.086Z,98910.00
2023-01-13T02:36:57.758Z,98915.00
2023-01-13T02:39:34.318Z,98908.00
2023-01-13T02:42:30.648Z,98931.00
2023-01-13T02:45:16.751Z,98916.00
2023-01-13T02:47:48.173Z,98915.00
2023-01-13T02:50:20.045Z,98915.00
2023-01-13T02:52:54.605Z,98915.00
2023-01-13T02:55:39.315Z,98915.00
2023-01-13T02:58:11.020Z,98914.00
2023-01-13T03:00:39.635Z,98913.00
2023-01-13T03:03:07.058Z,98916.00
2023-01-13T03:05:34.961Z,98916.00
2023-01-13T03:08:27.799Z,98907.00
2023-01-13T03:11:09.935Z,98895.00
2023-01-13T03:14:07.076Z,98904.00
2023-01-13T03:16:52.122Z,98893.00
2023-01-13T03:19:55.901Z,98906.00
2023-01-13T03:22:37.420Z,98907.00
2023-01-13T03:25:46.099Z,98910.00
2023-01-13T03:28:41.592Z,98902.00
2023-01-13T03:31:18.049Z,98905.00
2023-01-13T03:34:02.590Z,98909.00
2023-01-13T03:36:33.233Z,98905.00
2023-01-13T03:39:10.662Z,98918.00
2023-01-13T03:41:49.167Z,98921.00
2023-01-13T03:44:23.209Z,98927.00
2023-01-13T03:47:21.256Z,98916.00
2023-01-13T03:49:59.288Z,98919.00
2023-01-13T03:52:42.666Z,98934.00
2023-01-13T03:55:23.670Z,98936.00
2023-01-13T03:58:07.028Z,98938.00
2023-01-13T04:01:06.194Z,98933.00
2023-01-13T04:03:44.240Z,98931.00
2023-01-13T04:06:25.934Z,98930.00
2023-01-13T04:09:43.704Z,98928.00
2023-01-13T04:12:50.725Z,98921.00
2023-01-13T04:15:22.520Z,98931.00
2023-01-13T04:17:51.862Z,98919.00
2023-01-13T04:20:19.619Z,98908.00
2023-01-13T04:22:47.818Z,98926.00
2023-01-13T04:25:15.458Z,98925.00
2023-01-13T04:27:42.962Z,98928.00
2023-01-13T04:30:11.551Z,98916.00
2023-01-13T04:32:39.178Z,98908.00
2023-01-13T04:35:08.680Z,98907.00
2023-01-13T04:37:36.318Z,98886.00
2023-01-13T04:40:04.408Z,98840.00
2023-01-13T04:42:31.724Z,98871.00
2023-01-13T04:44:59.120Z,98893.00
2023-01-13T04:47:26.703Z,98902.00
2023-01-13T04:49:54.479Z,98915.00
2023-01-13T04:52:21.847Z,98913.00
2023-01-13T04:54:49.399Z,98911.00
2023-01-13T04:57:16.826Z,98906.00
2023-01-13T04:59:44.273Z,98913.00
2023-01-13T05:02:15.260Z,98920.00
2023-01-13T05:04:42.905Z,98928.00
2023-01-13T05:07:10.379Z,98945.00
2023-01-13T05:09:38.023Z,98932.00
2023-01-13T05:12:24.621Z,98923.00
2023-01-13T05:15:10.566Z,98927.00
2023-01-13T05:17:38.485Z,98950.00
2023-01-13T05:20:07.446Z,98947.00
2023-01-13T05:22:53.428Z,98950.00
2023-01-13T05:25:21.718Z,98964.00
2023-01-13T05:28:03.773Z,98960.00
2023-01-13T05:30:38.037Z,98947.00
2023-01-13T05:33:05.847Z,98933.00
2023-01-13T05:35:33.366Z,98938.00
2023-01-13T05:38:00.913Z,98941.00
2023-01-13T05:40:46.800Z,98944.00
2023-01-13T05:43:33.415Z,98943.00
2023-01-13T05:46:10.185Z,98929.00
2023-01-13T05:48:41.137Z,98929.00
2023-01-13T05:51:11.360Z,98942.00
2023-01-13T05:53:41.046Z,98938.00
2023-01-13T05:56:10.198Z,98935.00
2023-01-13T05:58:38.279Z,98944.00
2023-01-13T06:01:08.921Z,98933.00
2023-01-13T06:03:37.744Z,98932.00
2023-01-13T06:06:13.313Z,98933.00
2023-01-13T06:08:40.927Z,98945.00
2023-01-13T06:11:08.853Z,98944.00
2023-01-13T06:13:36.457Z,98953.00
2023-01-13T06:16:04.261Z,98948.00
2023-01-13T06:18:34.497Z,98951.00
2023-01-13T06:21:02.032Z,98944.00
2023-01-13T06:23:29.891Z,98945.00
2023-01-13T06:26:17.981Z,98946.00
2023-01-13T06:28:45.498Z,98951.00
2023-01-13T06:31:13.053Z,98950.00
2023-01-13T06:33:51.380Z,98955.00
2023-01-13T06:36:28.410Z,98947.00
2023-01-13T06:39:00.039Z,98941.00
2023-01-13T06:41:47.849Z,98943.00
2023-01-13T06:44:15.549Z,98949.00
2023-01-13T06:46:43.190Z,98943.00
2023-01-13T06:49:10.870Z,98953.00
2023-01-13T06:51:38.412Z,98949.00
2023-01-13T06:54:06.176Z,98944.00
2023-01-13T06:56:33.854Z,98955.00
2023-01-13T06:59:01.308Z,98952.00
2023-01-13T07:01:29.055Z,98961.00
2023-01-13T07:03:56.632Z,98962.00
2023-01-13T07:06:24.703Z,98962.00
2023-01-13T07:08:52.382Z,98966.00
2023-01-13T07:11:19.919Z,98965.00
2023-01-13T07:14:06.180Z,98964.00
2023-01-13T07:16:33.889Z,98965.00
2023-01-13T07:19:01.618Z,98971.00
2023-01-13T07:21:29.435Z,98964.00
2023-01-13T07:23:56.946Z,98957.00
2023-01-13T07:26:24.481Z,98956.00
2023-01-13T07:28:52.049Z,98953.00
2023-01-13T07:31:22.620Z,98954.00
2023-01-13T07:33:50.212Z,98953.00
2023-01-13T07:36:17.994Z,98955.00
2023-01-13T07:38:45.567Z,98964.00
2023-01-13T07:41:33.028Z,98959.00
2023-01-13T07:44:05.005Z,98961.00
2023-01-13T07:46:33.887Z,98949.00
2023-01-13T07:49:01.305Z,98935.00
2023-01-13T07:51:29.015Z,98951.00
2023-01-13T07:53:56.637Z,98944.00
2023-01-13T07:56:25.143Z,98955.00
2023-01-13T07:58:53.558Z,98965.00
2023-01-13T08:01:21.502Z,98961.00
2023-01-13T08:03:49.120Z,98957.00
2023-01-13T08:06:16.904Z,98969.00
2023-01-13T08:08:44.586Z,98968.00
2023-01-13T08:11:12.510Z,98977.00
2023-01-13T08:13:40.438Z,98974.00
2023-01-13T08:16:12.676Z,98970.00
2023-01-13T08:18:41.209Z,98968.00
2023-01-13T08:21:16.313Z,98970.00
2023-01-13T08:23:45.897Z,98980.00
2023-01-13T08:26:17.431Z,98976.00
2023-01-13T08:28:46.287Z,98971.00
2023-01-13T08:31:16.787Z,98969.00
2023-01-13T08:33:44.565Z,98969.00
2023-01-13T08:36:13.140Z,98964.00
2023-01-13T08:38:42.993Z,98970.00
2023-01-13T08:41:36.621Z,98983.00
2023-01-13T08:44:05.406Z,98984.00
2023-01-13T08:46:33.146Z,98988.00
2023-01-13T08:49:00.729Z,98996.00
2023-01-13T08:51:28.545Z,98990.00
2023-01-13T08:53:59.176Z,99001.00
2023-01-13T08:56:26.704Z,99000.00
2023-01-13T08:59:01.511Z,99007.00
2023-01-13T09:01:29.317Z,99012.00
2023-01-13T09:03:57.342Z,99003.00
2023-01-13T09:06:24.959Z,99013.00
2023-01-13T09:08:52.337Z,99007.00
2023-01-13T09:11:47.551Z,99010.00
2023-01-13T09:14:22.398Z,99019.00
2023-01-13T09:16:49.786Z,99019.00
2023-01-13T09:19:17.315Z,99032.00
2023-01-13T09:21:44.967Z,99016.00
2023-01-13T09:24:12.356Z,99017.00
2023-01-13T09:26:39.928Z,99021.00
2023-01-13T09:29:07.498Z,99015.00
2023-01-13T09:31:35.168Z,99016.00
2023-01-13T09:34:23.819Z,99017.00
2023-01-13T09:36:51.495Z,99017.00
2023-01-13T09:39:19.237Z,99014.00
2023-01-13T09:42:13.505Z,99014.00
2023-01-13T09:44:59.761Z,99028.00
2023-01-13T09:47:37.857Z,99016.00
2023-01-13T09:50:14.290Z,99007.00
2023-01-13T09:52:43.438Z,99013.00
2023-01-13T09:55:17.999Z,99018.00
2023-01-13T09:57:45.409Z,99011.00
2023-01-13T10:00:24.933Z,99006.00
2023-01-13T10:03:16.543Z,99013.00
2023-01-13T10:05:52.317Z,99020.00
2023-01-13T10:08:34.087Z,99007.00
2023-01-13T10:11:30.560Z,99015.00
2023-01-13T10:14:13.681Z,99009.00
2023-01-13T10:16:56.194Z,99009.00
2023-01-13T10:19:34.032Z,99019.00
2023-01-13T10:22:19.791Z,99021.00
2023-01-13T10:24:53.068Z,99025.00
2023-01-13T10:27:40.338Z,99027.00
2023-01-13T10:30:31.557Z,99025.00
2023-01-13T10:33:14.888Z,99026.00
2023-01-13T10:36:00.430Z,99021.00
2023-01-13T10:38:46.960Z,99023.00
2023-01-13T10:41:20.348Z,99028.00
2023-01-13T10:44:02.489Z,99025.00
2023-01-13T10:46:33.456Z,99022.00
2023-01-13T10:49:27.629Z,99028.00
2023-01-13T10:51:55.067Z,99028.00
2023-01-13T10:54:25.491Z,99022.00
2023-01-13T10:57:23.544Z,99027.00
2023-01-13T10:59:53.321Z,99027.00
2023-01-13T11:02:29.902Z,99036.00
2023-01-13T11:05:00.848Z,99031.00
2023-01-13T11:07:52.729Z,99040.00
2023-01-13T11:10:31.588Z,99047.00
2023-01-13T11:13:36.365Z,99055.00
2023-01-13T11:16:18.486Z,99058.00
2023-01-13T11:19:12.022Z,99053.00
2023-01-13T11:22:07.579Z,99058.00
2023-01-13T11:25:01.415Z,99056.00
2023-01-13T11:27:55.827Z,99057.00
2023-01-13T11:30:51.121Z,99065.00
2023-01-13T11:34:07.657Z,99057.00
2023-01-13T11:36:48.289Z,99048.00
2023-01-13T11:39:44.101Z,99049.00
2023-01-13T11:42:31.875Z,99049.00
2023-01-13T11:45:24.146Z,99050.00
2023-01-13T11:47:58.940Z,99055.00
2023-01-13T11:50:57.591Z,99038.00
2023-01-13T11:54:22.653Z,99033.00
2023-01-13T11:57:25.634Z,99030.00
2023-01-13T12:00:43.004Z,99033.00
2023-01-13T12:03:21.480Z,99029.00
2023-01-13T12:06:23.651Z,99023.00
2023-01-13T12:09:18.760Z,99019.00
2023-01-13T12:12:48.290Z,99021.00
2023-01-13T12:15:47.703Z,99031.00
2023-01-13T12:18:27.119Z,99033.00
2023-01-13T12:21:09.599Z,99030.00
2023-01-13T12:23:55.763Z,99025.00
2023-01-13T12:26:24.363Z,99043.00
2023-01-13T12:29:19.084Z,99033.00
2023-01-13T12:31:49.546Z,99029.00
2023-01-13T12:34:43.979Z,99031.00
2023-01-13T12:37:37.618Z,99030.00
2023-01-13T12:40:23.895Z,99032.00
2023-01-13T12:43:30.096Z,99032.00
2023-01-13T12:46:23.428Z,99038.00
2023-01-13T12:48:59.873Z,99044.00
2023-01-13T12:51:37.585Z,99047.00
2023-01-13T12:54:45.109Z,99040.00
2023-01-13T12:57:27.395Z,99050.00
2023-01-13T13:00:03.608Z,99035.00
2023-01-13T13:02:43.814Z,99041.00
2023-01-13T13:05:23.443Z,99039.00
2023-01-13T13:08:07.388Z,99051.00
2023-01-13T13:10:39.517Z,99047.00
2023-01-13T13:13:22.361Z,99050.00
2023-01-13T13:15:51.817Z,99056.00
2023-01-13T13:18:24.087Z,99063.00
2023-01-13T13:21:20.826Z,99075.00
2023-01-13T13:23:56.960Z,99068.00
2023-01-13T13:26:45.937Z,99073.00
2023-01-13T13:29:44.702Z,99075.00
2023-01-13T13:32:49.868Z,99084.00
2023-01-13T13:35:52.062Z,99068.00
2023-01-13T13:38:59.186Z,99073.00
2023-01-13T13:41:59.859Z,99081.00
2023-01-13T13:44:59.863Z,99073.00
2023-01-13T13:47:38.920Z,99089.00
2023-01-13T13:50:22.216Z,99091.00
2023-01-13T13:53:01.034Z,99094.00
2023-01-13T13:55:30.851Z,99080.00
2023-01-13T13:58:01.768Z,99090.00
2023-01-13T14:00:35.791Z,99094.00
2023-01-13T14:03:18.762Z,99096.00
2023-01-13T14:06:06.781Z,99094.00
2023-01-13T14:08:37.840Z,99106.00
2023-01-13T14:11:43.977Z,99106.00
2023-01-13T14:14:17.421Z,99111.00
2023-01-13T14:16:45.167Z,99114.00
2023-01-13T14:19:27.484Z,99113.00
2023-01-13T14:21:55.425Z,99118.00
2023-01-13T14:24:25.100Z,99123.00
2023-01-13T14:26:53.463Z,99120.00
2023-01-13T14:29:25.395Z,99129.00
2023-01-13T14:31:55.089Z,99120.00
2023-01-13T14:34:31.926Z,99122.00
2023-01-13T14:37:03.115Z,99132.00
2023-01-13T14:39:40.265Z,99144.00
2023-01-13T14:42:19.651Z,99137.00
2023-01-13T14:44:50.436Z,99147.00
2023-01-13T14:47:28.280Z,99154.00
2023-01-13T14:50:27.789Z,99164.00
2023-01-13T14:52:59.232Z,99167.00
2023-01-13T14:55:37.481Z,99184.00
2023-01-13T14:58:23.560Z,99185.00
2023-01-13T15:00:53.504Z,99190.00
2023-01-13T15:03:21.887Z,99185.00
2023-01-13T15:05:52.783Z,99188.00
2023-01-13T15:08:36.145Z,99185.00
2023-01-13T15:11:07.534Z,99197.00
2023-01-13T15:14:03.633Z,99198.00
2023-01-13T15:16:35.030Z,99211.00
2023-01-13T15:19:05.748Z,99224.00
2023-01-13T15:21:34.519Z,99226.00
2023-01-13T15:24:01.906Z,99229.00
2023-01-13T15:26:31.119Z,99228.00
2023-01-13T15:29:00.939Z,99237.00
2023-01-13T15:31:29.535Z,99233.00
2023-01-13T15:33:58.965Z,99249.00
2023-01-13T15:36:32.593Z,99235.00
2023-01-13T15:39:01.355Z,99232.00
2023-01-13T15:41:47.578Z,99241.00
2023-01-13T15:44:35.056Z,99238.00
2023-01-13T15:47:06.849Z,99242.00
2023-01-13T15:49:43.594Z,99240.00
2023-01-13T15:52:26.885Z,99242.00
2023-01-13T15:54:55.680Z,99243.00
2023-01-13T15:57:31.047Z,99245.00
2023-01-13T16:00:04.198Z,99247.00
2023-01-13T16:02:34.531Z,99258.00
2023-01-13T16:05:02.026Z,99265.00
2023-01-13T16:07:29.596Z,99265.00
2023-01-13T16:09:57.214Z,99265.00
2023-01-13T16:12:24.713Z,99267.00
2023-01-13T16:14:52.319Z,99280.00
2023-01-13T16:17:25.392Z,99280.00
2023-01-13T16:19:52.900Z,99266.00
2023-01-13T16:22:20.646Z,99269.00
2023-01-13T16:24:48.624Z,99280.00
2023-01-13T16:27:25.537Z,99275.00
2023-01-13T16:29:53.474Z,99286.00
2023-01-13T16:32:21.281Z,99279.00
2023-01-13T16:34:49.729Z,99290.00
2023-01-13T16:37:24.762Z,99290.00
2023-01-13T16:39:53.816Z,99283.00
2023-01-13T16:42:22.164Z,99288.00
2023-01-13T16:44:50.913Z,99280.00
2023-01-13T16:47:19.417Z,99280.00
2023-01-13T16:49:47.688Z,99288.00
2023-01-13T16:52:15.311Z,99299.00
2023-01-13T16:54:43.157Z,99307.00
2023-01-13T16:57:13.911Z,99298.00
2023-01-13T16:59:41.580Z,99290.00
2023-01-13T17:02:16.437Z,99308.00
2023-01-13T17:04:43.986Z,99309.00
2023-01-13T17:07:16.779Z,99316.00
2023-01-13T17:09:44.549Z,99325.00
2023-01-13T17:12:12.248Z,99330.00
2023-01-13T17:14:40.255Z,99328.00
2023-01-13T17:17:25.636Z,99331.00
2023-01-13T17:19:54.016Z,99339.00
2023-01-13T17:22:22.265Z,99335.00
2023-01-13T17:24:49.630Z,99339.00
2023-01-13T17:27:18.847Z,99329.00
2023-01-13T17:29:46.515Z,99326.00
2023-01-13T17:32:23.284Z,99334.00
2023-01-13T17:34:51.327Z,99329.00
2023-01-13T17:37:18.956Z,99331.00
2023-01-13T17:39:51.190Z,99336.00
2023-01-13T17:42:18.758Z,99348.00
2023-01-13T17:44:48.112Z,99356.00
2023-01-13T17:47:15.679Z,99361.00
2023-01-13T17:49:43.068Z,99371.00
2023-01-13T17:52:10.638Z,99371.00
2023-01-13T17:54:40.061Z,99370.00
2023-01-13T17:57:07.452Z,99380.00
2023-01-13T17:59:34.902Z,99366.00
2023-01-13T18:02:02.325Z,99378.00
2023-01-13T18:04:31.029Z,99389.00
2023-01-13T18:06:58.709Z,99402.00
2023-01-13T18:09:26.934Z,99398.00
2023-01-13T18:11:57.213Z,99394.00
2023-01-13T18:14:24.845Z,99393.00
2023-01-13T18:16:52.904Z,99392.00
2023-01-13T18:19:39.131Z,99385.00
2023-01-13T18:22:24.844Z,99388.00
2023-01-13T18:25:11.221Z,99393.00
2023-01-13T18:27:41.672Z,99399.00
2023-01-13T18:30:10.835Z,99396.00
2023-01-13T18:32:38.651Z,99391.00
2023-01-13T18:35:10.674Z,99397.00
2023-01-13T18:37:40.779Z,99393.00
2023-01-13T18:40:11.652Z,99403.00
2023-01-13T18:42:51.912Z,99422.00
2023-01-13T18:45:33.144Z,99414.00
2023-01-13T18:48:03.119Z,99415.00
2023-01-13T18:50:31.868Z,99414.00
2023-01-13T18:52:59.353Z,99410.00
2023-01-13T18:55:28.860Z,99415.00
2023-01-13T18:57:57.394Z,99427.00
2023-01-13T19:00:27.018Z,99453.00
2023-01-13T19:05:35.649Z,99424.00
2023-01-13T19:08:04.473Z,99423.00
2023-01-13T19:10:32.860Z,99430.00
2023-01-13T19:13:01.811Z,99420.00
2023-01-13T19:15:30.365Z,99442.00
2023-01-13T19:17:58.084Z,99451.00
2023-01-13T19:20:25.627Z,99463.00
2023-01-13T19:22:54.666Z,99457.00
2023-01-13T19:25:22.636Z,99463.00
2023-01-13T19:27:50.088Z,99471.00
2023-01-13T19:30:18.025Z,99478.00
2023-01-13T19:32:45.572Z,99487.00
2023-01-13T19:35:17.421Z,99480.00
2023-01-13T19:37:45.063Z,99489.00
2023-01-13T19:40:14.018Z,99483.00
2023-01-13T19:43:02.774Z,99478.00
2023-01-13T19:45:32.276Z,99474.00
2023-01-13T19:48:05.702Z,99483.00
2023-01-13T19:50:40.559Z,99486.00
2023-01-13T19:53:10.706Z,99483.00
2023-01-13T19:55:38.159Z,99485.00
2023-01-13T19:58:05.779Z,99493.00
2023-01-13T20:00:35.587Z,99499.00
2023-01-13T20:03:05.006Z,99502.00
2023-01-13T20:05:32.592Z,99508.00
2023-01-13T20:08:00.044Z,99520.00
2023-01-13T20:10:30.754Z,99524.00
2023-01-13T20:12:58.658Z,99531.00
2023-01-13T20:15:26.072Z,99541.00
2023-01-13T20:17:55.613Z,99542.00
2023-01-13T20:20:27.101Z,99546.00
2023-01-13T20:22:54.544Z,99549.00
2023-01-13T20:25:21.970Z,99543.00
2023-01-13T20:27:49.966Z,99548.00
2023-01-13T20:30:17.869Z,99551.00
2023-01-13T20:32:45.422Z,99556.00
2023-01-13T20:35:13.067Z,99544.00
2023-01-13T20:37:42.615Z,99557.00
2023-01-13T20:40:15.161Z,99554.00
2023-01-13T20:42:45.400Z,99564.00
2023-01-13T20:45:20.069Z,99572.00
2023-01-13T20:47:47.967Z,99574.00
2023-01-13T20:50:16.987Z,99567.00
2023-01-13T20:52:45.059Z,99570.00
2023-01-13T20:55:15.652Z,99571.00
2023-01-13T20:57:43.257Z,99573.00
2023-01-13T21:00:11.472Z,99571.00
2023-01-13T21:02:40.948Z,99574.00
2023-01-13T21:05:09.850Z,99570.00
2023-01-13T21:07:37.309Z,99572.00
2023-01-13T21:10:06.066Z,99571.00
2023-01-13T21:12:52.230Z,99581.00
2023-01-13T21:15:22.951Z,99582.00
2023-01-13T21:18:10.317Z,99585.00
2023-01-13T21:20:39.477Z,99597.00
2023-01-13T21:23:07.770Z,99599.00
2023-01-13T21:25:37.378Z,99597.00
2023-01-13T21:28:09.827Z,99606.00
2023-01-13T21:30:39.219Z,99599.00
2023-01-13T21:33:14.022Z,99609.00
2023-01-13T21:35:42.574Z,99601.00
2023-01-13T21:38:14.440Z,99608.00
2023-01-13T21:40:41.914Z,99603.00
2023-01-13T21:43:31.601Z,99607.00
2023-01-13T21:46:17.431Z,99616.00
2023-01-13T21:48:44.766Z,99622.00
2023-01-13T21:51:12.211Z,99625.00
2023-01-13T21:53:39.609Z,99624.00
2023-01-13T21:56:07.693Z,99627.00
2023-01-13T21:58:35.198Z,99635.00
2023-01-13T22:01:03.184Z,99638.00
2023-01-13T22:03:50.872Z,99649.00
2023-01-13T22:06:18.509Z,99644.00
2023-01-13T22:08:46.094Z,99656.00
2023-01-13T22:11:13.858Z,99657.00
2023-01-13T22:13:59.847Z,99654.00
2023-01-13T22:16:27.754Z,99649.00
2023-01-13T22:18:55.503Z,99664.00
2023-01-13T22:21:22.908Z,99674.00
2023-01-13T22:23:50.634Z,99676.00
2023-01-13T22:26:20.480Z,99680.00
2023-01-13T22:28:48.012Z,99690.00
2023-01-13T22:31:23.789Z,99686.00
2023-01-13T22:33:56.337Z,99695.00
2023-01-13T22:36:24.796Z,99696.00
2023-01-13T22:39:00.646Z,99696.00
2023-01-13T22:41:30.898Z,99703.00
2023-01-13T22:43:58.605Z,99696.00
2023-01-13T22:46:26.325Z,99704.00
2023-01-13T22:48:55.960Z,99710.00
2023-01-13T22:51:23.832Z,99706.00
2023-01-13T22:53:51.403Z,99711.00
2023-01-13T22:56:26.349Z,99711.00
2023-01-13T22:58:57.751Z,99716.00
2023-01-13T23:01:28.357Z,99729.00
2023-01-13T23:03:56.621Z,99727.00
2023-01-13T23:06:26.989Z,99732.00
2023-01-13T23:08:56.774Z,99727.00
2023-01-13T23:11:28.804Z,99740.00
2023-01-13T23:14:05.811Z,99739.00
2023-01-13T23:16:38.432Z,99740.00
2023-01-13T23:19:07.581Z,99741.00
2023-01-13T23:21:37.647Z,99740.00
2023-01-13T23:24:06.821Z,99743.00
2023-01-13T23:26:37.117Z,99742.00
2023-01-13T23:29:08.444Z,99740.00
2023-01-13T23:31:36.214Z,99745.00
2023-01-13T23:34:03.833Z,99746.00
2023-01-13T23:36:31.694Z,99749.00
2023-01-13T23:38:59.937Z,99763.00
2023-01-13T23:41:29.314Z,99753.00
2023-01-13T23:44:00.206Z,99764.00
2023-01-13T23:46:30.540Z,99766.00
2023-01-13T23:48:58.445Z,99775.00
2023-01-13T23:51:27.713Z,99777.00
2023-01-13T23:53:55.288Z,99781.00
2023-01-13T23:56:29.634Z,99784.00
2023-01-13T23:58:57.768Z,99786.00
